createdAt,value
2018-07-10T00:02:43.716Z,21.04
2018-07-10T00:05:36.298Z,21.03
2018-07-10T00:10:22.699Z,21.06
2018-07-10T00:12:53.754Z,20.88
2018-07-10T00:15:22.957Z,20.93
2018-07-10T00:17:52.237Z,20.97
2018-07-10T00:20:22.304Z,20.97
2018-07-10T00:22:52.944Z,20.91
2018-07-10T00:25:22.192Z,20.83
2018-07-10T00:27:51.637Z,20.79
2018-07-10T00:30:20.871Z,20.76
2018-07-10T00:32:50.470Z,20.75
2018-07-10T00:35:19.661Z,20.73
2018-07-10T00:38:05.965Z,20.72
2018-07-10T00:40:35.292Z,20.69
2018-07-10T00:43:09.328Z,20.69
2018-07-10T00:45:38.805Z,20.69
2018-07-10T00:48:08.202Z,20.67
2018-07-10T00:50:37.556Z,20.63
2018-07-10T00:53:06.966Z,20.59
2018-07-10T00:55:36.424Z,20.56
2018-07-10T00:58:05.565Z,20.55
2018-07-10T01:00:41.607Z,20.54
2018-07-10T01:03:11.460Z,20.50
2018-07-10T01:05:40.672Z,20.50
2018-07-10T01:08:09.930Z,20.47
2018-07-10T01:10:39.688Z,20.47
2018-07-10T01:13:08.913Z,20.47
2018-07-10T01:15:38.110Z,20.46
2018-07-10T01:18:08.180Z,20.47
2018-07-10T01:20:39.383Z,20.46
2018-07-10T01:23:09.144Z,20.44
2018-07-10T01:25:40.178Z,20.41
2018-07-10T01:28:14.752Z,20.40
2018-07-10T01:30:43.971Z,20.37
2018-07-10T01:33:13.292Z,20.35
2018-07-10T01:35:42.429Z,20.34
2018-07-10T01:38:11.555Z,20.36
2018-07-10T01:40:40.748Z,20.38
2018-07-10T01:43:10.048Z,20.36
2018-07-10T01:45:39.325Z,20.33
2018-07-10T01:48:08.428Z,20.29
2018-07-10T01:50:37.708Z,20.26
2018-07-10T01:53:06.938Z,20.23
2018-07-10T01:55:36.248Z,20.21
2018-07-10T01:58:05.655Z,20.19
2018-07-10T02:00:42.458Z,20.17
2018-07-10T02:03:12.358Z,20.12
2018-07-10T02:05:41.911Z,20.09
2018-07-10T02:08:11.601Z,20.08
2018-07-10T02:10:44.267Z,20.04
2018-07-10T02:13:13.653Z,20.02
2018-07-10T02:15:44.878Z,19.99
2018-07-10T02:18:14.643Z,19.94
2018-07-10T02:20:59.703Z,19.90
2018-07-10T02:23:39.588Z,19.85
2018-07-10T02:26:24.798Z,19.84
2018-07-10T02:28:54.831Z,19.80
2018-07-10T02:31:24.083Z,19.80
2018-07-10T02:33:53.857Z,19.80
2018-07-10T02:36:24.190Z,19.80
2018-07-10T02:38:58.869Z,19.83
2018-07-10T02:41:28.850Z,19.83
2018-07-10T02:44:03.056Z,19.84
2018-07-10T02:46:37.431Z,19.83
2018-07-10T02:49:17.313Z,19.82
2018-07-10T02:52:00.240Z,19.78
2018-07-10T02:54:33.844Z,19.75
2018-07-10T02:57:06.384Z,19.75
2018-07-10T02:59:40.236Z,19.77
2018-07-10T03:02:21.844Z,19.78
2018-07-10T03:05:03.929Z,19.76
2018-07-10T03:07:35.724Z,19.76
2018-07-10T03:10:05.818Z,19.75
2018-07-10T03:12:37.181Z,19.75
2018-07-10T03:15:11.837Z,19.75
2018-07-10T03:17:42.519Z,19.76
2018-07-10T03:20:12.447Z,19.77
2018-07-10T03:22:44.679Z,19.76
2018-07-10T03:25:14.119Z,19.77
2018-07-10T03:27:43.540Z,19.76
2018-07-10T03:30:12.735Z,19.74
2018-07-10T03:32:42.359Z,19.72
2018-07-10T03:35:13.527Z,19.70
2018-07-10T03:37:47.097Z,19.68
2018-07-10T03:40:18.409Z,19.65
2018-07-10T03:42:48.409Z,19.66
2018-07-10T03:45:18.026Z,19.65
2018-07-10T03:47:47.180Z,19.63
2018-07-10T03:50:17.434Z,19.62
2018-07-10T03:52:46.787Z,19.58
2018-07-10T03:55:21.841Z,19.55
2018-07-10T03:57:59.310Z,19.53
2018-07-10T04:00:30.502Z,19.53
2018-07-10T04:03:00.185Z,19.53
2018-07-10T04:05:29.784Z,19.53
2018-07-10T04:07:59.712Z,19.49
2018-07-10T04:10:32.857Z,19.44
2018-07-10T04:13:08.995Z,19.44
2018-07-10T04:15:39.588Z,19.44
2018-07-10T04:18:13.968Z,19.46
2018-07-10T04:21:28.891Z,19.45
2018-07-10T04:24:21.723Z,19.38
2018-07-10T04:27:02.789Z,19.35
2018-07-10T04:29:43.833Z,19.35
2018-07-10T04:32:14.642Z,19.38
2018-07-10T04:34:45.150Z,19.44
2018-07-10T04:37:15.060Z,19.49
2018-07-10T04:39:46.470Z,19.52
2018-07-10T04:42:40.754Z,19.54
2018-07-10T04:45:11.034Z,19.54
2018-07-10T04:47:54.531Z,19.57
2018-07-10T04:50:32.468Z,19.58
2018-07-10T04:53:14.573Z,19.59
2018-07-10T04:55:44.705Z,19.65
2018-07-10T04:58:22.220Z,19.71
2018-07-10T05:01:02.696Z,19.71
2018-07-10T05:03:33.003Z,19.71
2018-07-10T05:06:08.557Z,19.76
2018-07-10T05:08:38.910Z,19.74
2018-07-10T05:11:09.228Z,19.73
2018-07-10T05:13:38.802Z,19.74
2018-07-10T05:16:08.522Z,19.78
2018-07-10T05:18:37.628Z,19.81
2018-07-10T05:21:13.436Z,19.83
2018-07-10T05:23:42.782Z,19.86
2018-07-10T05:26:17.660Z,19.89
2018-07-10T05:28:52.442Z,19.88
2018-07-10T05:31:25.339Z,19.89
2018-07-10T05:33:55.166Z,19.92
2018-07-10T05:36:24.958Z,19.95
2018-07-10T05:39:01.119Z,19.98
2018-07-10T05:41:31.944Z,20.00
2018-07-10T05:44:02.372Z,20.03
2018-07-10T05:46:32.037Z,20.09
2018-07-10T05:49:05.417Z,20.15
2018-07-10T05:51:50.549Z,20.20
2018-07-10T05:54:20.557Z,20.25
2018-07-10T05:56:50.016Z,20.30
2018-07-10T05:59:19.176Z,20.34
2018-07-10T06:01:49.403Z,20.37
2018-07-10T06:04:19.009Z,20.39
2018-07-10T06:06:48.532Z,20.43
2018-07-10T06:09:23.059Z,20.48
2018-07-10T06:11:52.573Z,20.54
2018-07-10T06:14:22.227Z,20.62
2018-07-10T06:16:53.792Z,20.71
2018-07-10T06:19:23.406Z,20.82
2018-07-10T06:21:53.939Z,20.93
2018-07-10T06:24:29.159Z,21.05
2018-07-10T06:27:01.448Z,21.15
2018-07-10T06:29:46.905Z,21.23
2018-07-10T06:32:21.256Z,21.30
2018-07-10T06:34:57.088Z,21.35
2018-07-10T06:37:31.918Z,21.41
2018-07-10T06:40:05.647Z,21.49
2018-07-10T06:42:52.951Z,21.60
2018-07-10T06:45:25.149Z,21.66
2018-07-10T06:47:57.358Z,21.71
2018-07-10T06:50:26.974Z,21.77
2018-07-10T06:52:59.133Z,21.86
2018-07-10T06:55:28.059Z,22.03
2018-07-10T06:58:02.292Z,22.29
2018-07-10T07:00:31.367Z,22.60
2018-07-10T07:03:03.164Z,22.99
2018-07-10T07:05:34.740Z,23.66
2018-07-10T07:08:08.427Z,24.61
2018-07-10T07:10:48.161Z,25.69
2018-07-10T07:13:18.562Z,26.78
2018-07-10T07:15:48.018Z,27.64
2018-07-10T07:18:24.205Z,28.30
2018-07-10T07:20:56.076Z,28.79
2018-07-10T07:23:25.625Z,29.01
2018-07-10T07:25:54.693Z,29.18
2018-07-10T07:28:25.242Z,29.45
2018-07-10T07:30:55.630Z,29.77
2018-07-10T07:33:25.232Z,30.11
2018-07-10T07:35:54.384Z,30.55
2018-07-10T07:38:24.478Z,30.86
2018-07-10T07:40:54.825Z,30.70
2018-07-10T07:43:26.016Z,30.33
2018-07-10T07:45:59.137Z,30.17
2018-07-10T07:48:29.287Z,30.00
2018-07-10T07:50:59.244Z,29.98
2018-07-10T07:53:30.265Z,30.05
2018-07-10T07:55:59.290Z,30.16
2018-07-10T07:58:31.848Z,30.44
2018-07-10T08:01:01.218Z,30.62
2018-07-10T08:03:32.744Z,30.35
2018-07-10T08:06:07.011Z,29.87
2018-07-10T08:08:37.614Z,29.70
2018-07-10T08:11:08.463Z,29.70
2018-07-10T08:13:37.607Z,29.58
2018-07-10T08:16:07.324Z,29.68
2018-07-10T08:18:36.538Z,30.02
2018-07-10T08:21:07.611Z,30.21
2018-07-10T08:23:36.694Z,30.11
2018-07-10T08:26:05.768Z,29.78
2018-07-10T08:28:35.074Z,29.33
2018-07-10T08:31:05.164Z,28.84
2018-07-10T08:33:34.315Z,28.59
2018-07-10T08:36:04.540Z,28.39
2018-07-10T08:38:40.751Z,28.21
2018-07-10T08:41:20.339Z,28.34
2018-07-10T08:43:49.714Z,28.52
2018-07-10T08:46:24.293Z,28.55
2018-07-10T08:48:53.823Z,28.34
2018-07-10T08:51:23.104Z,28.02
2018-07-10T08:53:55.303Z,27.65
2018-07-10T08:56:25.545Z,27.26
2018-07-10T08:58:54.916Z,26.94
2018-07-10T09:01:25.009Z,26.68
2018-07-10T09:03:54.465Z,26.43
2018-07-10T09:06:23.500Z,26.23
2018-07-10T09:08:52.588Z,26.15
2018-07-10T09:11:21.756Z,26.21
2018-07-10T09:13:51.017Z,26.41
2018-07-10T09:16:20.868Z,26.72
2018-07-10T09:18:55.600Z,27.00
2018-07-10T09:21:26.674Z,27.15
2018-07-10T09:23:56.350Z,27.25
2018-07-10T09:26:25.399Z,27.43
2018-07-10T09:28:54.436Z,27.61
2018-07-10T09:31:23.879Z,27.72
2018-07-10T09:33:53.186Z,27.79
2018-07-10T09:36:23.292Z,27.91
2018-07-10T09:38:52.319Z,27.97
2018-07-10T09:41:21.382Z,27.99
2018-07-10T09:43:51.039Z,28.04
2018-07-10T09:46:20.411Z,28.06
2018-07-10T09:48:50.087Z,28.02
2018-07-10T09:51:19.556Z,28.02
2018-07-10T09:53:48.651Z,28.03
2018-07-10T09:56:18.657Z,28.10
2018-07-10T09:58:48.584Z,28.14
2018-07-10T10:01:22.548Z,28.07
2018-07-10T10:03:53.227Z,27.81
2018-07-10T10:06:26.967Z,27.52
2018-07-10T10:08:56.271Z,27.19
2018-07-10T10:11:26.909Z,26.87
2018-07-10T10:13:57.007Z,26.53
2018-07-10T10:16:26.118Z,26.24
2018-07-10T10:18:59.925Z,25.96
2018-07-10T10:21:30.660Z,25.68
2018-07-10T10:24:00.759Z,25.46
2018-07-10T10:26:34.127Z,25.28
2018-07-10T10:29:03.474Z,25.12
2018-07-10T10:31:32.842Z,24.99
2018-07-10T10:34:02.322Z,24.93
2018-07-10T10:36:32.112Z,24.93
2018-07-10T10:39:01.389Z,24.89
2018-07-10T10:41:31.233Z,24.85
2018-07-10T10:44:00.942Z,24.78
2018-07-10T10:46:30.279Z,24.67
2018-07-10T10:48:59.722Z,24.57
2018-07-10T10:51:30.021Z,24.45
2018-07-10T10:53:59.125Z,24.36
2018-07-10T10:56:28.780Z,24.29
2018-07-10T10:58:58.004Z,24.25
2018-07-10T11:01:27.743Z,24.26
2018-07-10T11:03:57.621Z,24.28
2018-07-10T11:06:28.584Z,24.28
2018-07-10T11:08:58.766Z,24.26
2018-07-10T11:11:29.548Z,24.20
2018-07-10T11:14:04.264Z,24.11
2018-07-10T11:16:33.362Z,24.07
2018-07-10T11:19:16.730Z,24.04
2018-07-10T11:22:09.076Z,23.98
2018-07-10T11:25:08.596Z,23.83
2018-07-10T11:28:17.918Z,23.65
2018-07-10T11:30:47.860Z,23.50
2018-07-10T11:33:17.745Z,23.46
2018-07-10T11:35:47.496Z,23.47
2018-07-10T11:38:18.101Z,23.49
2018-07-10T11:40:50.409Z,23.54
2018-07-10T11:43:20.860Z,23.57
2018-07-10T11:45:50.443Z,23.65
2018-07-10T11:48:20.436Z,23.74
2018-07-10T11:50:49.802Z,23.90
2018-07-10T11:53:19.063Z,24.08
2018-07-10T11:55:48.563Z,24.21
2018-07-10T11:58:20.100Z,24.34
2018-07-10T12:00:50.580Z,24.44
2018-07-10T12:03:21.094Z,24.44
2018-07-10T12:05:54.547Z,24.36
2018-07-10T12:08:25.116Z,24.28
2018-07-10T12:11:22.643Z,24.19
2018-07-10T12:13:51.977Z,24.07
2018-07-10T12:16:23.184Z,24.04
2018-07-10T12:18:56.344Z,24.00
2018-07-10T12:21:26.175Z,23.96
2018-07-10T12:23:56.107Z,23.91
2018-07-10T12:26:25.404Z,23.89
2018-07-10T12:28:54.525Z,23.88
2018-07-10T12:31:24.409Z,23.86
2018-07-10T12:33:55.890Z,23.87
2018-07-10T12:36:28.595Z,23.90
2018-07-10T12:38:59.747Z,23.92
2018-07-10T12:41:31.604Z,23.97
2018-07-10T12:44:01.884Z,24.00
2018-07-10T12:46:31.505Z,23.98
2018-07-10T12:49:01.193Z,23.95
2018-07-10T12:51:32.734Z,23.90
2018-07-10T12:54:01.966Z,23.83
2018-07-10T12:56:31.600Z,23.77
2018-07-10T12:59:03.223Z,23.75
2018-07-10T13:01:32.640Z,23.72
2018-07-10T13:04:01.760Z,23.69
2018-07-10T13:06:30.894Z,23.65
2018-07-10T13:08:59.977Z,23.60
2018-07-10T13:11:29.098Z,23.54
2018-07-10T13:13:58.617Z,23.46
2018-07-10T13:16:28.993Z,23.42
2018-07-10T13:19:01.783Z,23.36
2018-07-10T13:21:31.168Z,23.34
2018-07-10T13:24:01.952Z,23.32
2018-07-10T13:26:31.437Z,23.27
2018-07-10T13:29:01.161Z,23.21
2018-07-10T13:31:30.836Z,23.15
2018-07-10T13:34:02.134Z,23.14
2018-07-10T13:36:33.325Z,23.11
2018-07-10T13:39:06.159Z,23.09
2018-07-10T13:41:36.136Z,23.10
2018-07-10T13:44:05.844Z,23.10
2018-07-10T13:46:35.566Z,23.10
2018-07-10T13:49:05.743Z,23.13
2018-07-10T13:51:34.845Z,23.23
2018-07-10T13:54:04.811Z,23.34
2018-07-10T13:56:35.036Z,23.50
2018-07-10T13:59:07.184Z,23.67
2018-07-10T14:01:39.161Z,23.89
2018-07-10T14:04:08.324Z,24.16
2018-07-10T14:06:37.781Z,24.30
2018-07-10T14:09:10.780Z,24.40
2018-07-10T14:11:40.794Z,24.48
2018-07-10T14:14:10.145Z,24.51
2018-07-10T14:16:40.118Z,24.55
2018-07-10T14:19:10.914Z,24.59
2018-07-10T14:21:45.024Z,24.59
2018-07-10T14:24:14.438Z,24.55
2018-07-10T14:26:46.815Z,24.52
2018-07-10T14:29:19.104Z,24.44
2018-07-10T14:31:48.584Z,24.34
2018-07-10T14:41:05.740Z,24.31
2018-07-10T14:43:38.164Z,23.64
2018-07-10T14:46:14.076Z,23.79
2018-07-10T14:48:50.716Z,23.98
2018-07-10T14:51:43.920Z,24.07
2018-07-10T14:54:13.279Z,24.13
2018-07-10T14:56:43.040Z,24.17
2018-07-10T14:59:16.610Z,24.13
2018-07-10T15:01:46.141Z,24.04
2018-07-10T15:04:15.810Z,23.95
2018-07-10T15:06:45.981Z,23.86
2018-07-10T15:09:16.632Z,23.78
2018-07-10T15:11:45.681Z,23.67
2018-07-10T15:14:14.480Z,23.61
2018-07-10T15:16:48.942Z,23.46
2018-07-10T15:19:23.611Z,23.27
2018-07-10T15:21:53.373Z,23.15
2018-07-10T15:24:23.081Z,23.06
2018-07-10T15:26:52.897Z,22.99
2018-07-10T15:29:28.446Z,22.95
2018-07-10T15:31:59.269Z,22.89
2018-07-10T15:34:29.324Z,22.87
2018-07-10T15:36:58.733Z,22.87
2018-07-10T15:39:28.274Z,22.82
2018-07-10T15:41:57.755Z,22.78
2018-07-10T15:44:27.307Z,22.68
2018-07-10T15:46:56.943Z,22.59
2018-07-10T15:49:28.820Z,22.48
2018-07-10T15:51:58.239Z,22.39
2018-07-10T15:54:27.718Z,22.28
2018-07-10T15:56:57.803Z,22.16
2018-07-10T15:59:27.978Z,22.03
2018-07-10T16:01:57.513Z,21.87
2018-07-10T16:04:32.871Z,21.73
2018-07-10T16:07:03.740Z,21.62
2018-07-10T16:09:33.188Z,21.52
2018-07-10T16:12:05.413Z,21.48
2018-07-10T16:14:38.207Z,21.44
2018-07-10T16:17:20.441Z,21.43
2018-07-10T16:19:57.728Z,21.45
2018-07-10T16:22:28.407Z,21.47
2018-07-10T16:25:06.790Z,21.50
2018-07-10T16:27:42.063Z,21.54
2018-07-10T16:30:50.075Z,21.61
2018-07-10T16:33:28.957Z,21.66
2018-07-10T16:35:58.335Z,21.73
2018-07-10T16:38:27.516Z,21.76
2018-07-10T16:41:02.248Z,21.79
2018-07-10T16:43:31.788Z,21.81
2018-07-10T16:46:03.357Z,21.82
2018-07-10T16:49:44.207Z,21.85
2018-07-10T16:52:44.530Z,21.76
2018-07-10T16:55:14.771Z,21.77
2018-07-10T16:57:44.555Z,21.84
2018-07-10T17:00:13.847Z,21.92
2018-07-10T17:02:43.186Z,22.00
2018-07-10T17:05:13.353Z,22.03
2018-07-10T17:07:43.935Z,22.07
2018-07-10T17:10:14.399Z,22.09
2018-07-10T17:12:44.231Z,22.10
2018-07-10T17:15:14.186Z,22.15
2018-07-10T17:17:45.682Z,22.19
2018-07-10T17:20:17.771Z,22.24
2018-07-10T17:22:47.204Z,22.29
2018-07-10T17:25:17.604Z,22.26
2018-07-10T17:27:48.925Z,22.24
2018-07-10T17:30:18.221Z,22.17
2018-07-10T17:32:47.706Z,22.07
2018-07-10T17:35:17.101Z,22.00
2018-07-10T17:37:49.285Z,21.91
2018-07-10T17:40:19.316Z,21.81
2018-07-10T17:42:49.280Z,21.75
2018-07-10T17:45:23.264Z,21.71
2018-07-10T17:47:53.242Z,21.70
2018-07-10T17:50:22.642Z,21.69
2018-07-10T17:52:52.030Z,21.68
2018-07-10T17:55:22.547Z,21.63
2018-07-10T17:57:57.781Z,21.58
2018-07-10T18:00:30.128Z,21.51
2018-07-10T18:02:59.608Z,21.43
2018-07-10T18:05:29.472Z,21.36
2018-07-10T18:07:59.067Z,21.27
2018-07-10T18:10:28.356Z,21.20
2018-07-10T18:12:58.057Z,21.15
2018-07-10T18:15:27.552Z,21.11
2018-07-10T18:18:32.205Z,21.06
2018-07-10T18:21:03.585Z,20.99
2018-07-10T18:23:33.845Z,20.97
2018-07-10T18:26:03.724Z,20.96
2018-07-10T18:28:33.837Z,20.97
2018-07-10T18:31:03.125Z,20.95
2018-07-10T18:33:32.697Z,20.91
2018-07-10T18:36:04.157Z,20.89
2018-07-10T18:38:33.926Z,20.86
2018-07-10T18:41:04.592Z,20.82
2018-07-10T18:43:34.101Z,20.79
2018-07-10T18:46:03.314Z,20.73
2018-07-10T18:48:32.599Z,20.71
2018-07-10T18:51:01.720Z,20.70
2018-07-10T18:53:31.455Z,20.71
2018-07-10T18:56:01.630Z,20.72
2018-07-10T18:58:38.253Z,20.71
2018-07-10T19:01:17.228Z,20.70
2018-07-10T19:03:48.917Z,20.67
2018-07-10T19:06:22.055Z,20.63
2018-07-10T19:08:53.860Z,20.59
2018-07-10T19:11:27.817Z,20.55
2018-07-10T19:14:02.889Z,20.52
2018-07-10T19:16:36.810Z,20.49
2018-07-10T19:19:09.454Z,20.49
2018-07-10T19:21:39.867Z,20.47
2018-07-10T19:24:16.584Z,20.47
2018-07-10T19:26:47.789Z,20.44
2018-07-10T19:29:29.664Z,20.44
2018-07-10T19:31:58.916Z,20.43
2018-07-10T19:34:28.557Z,20.45
2018-07-10T19:36:58.353Z,20.46
2018-07-10T19:39:27.976Z,20.49
2018-07-10T19:41:57.902Z,20.52
2018-07-10T19:44:27.308Z,20.55
2018-07-10T19:46:56.476Z,20.58
2018-07-10T19:49:26.543Z,20.61
2018-07-10T19:51:55.843Z,20.64
2018-07-10T19:54:25.192Z,20.66
2018-07-10T19:56:54.248Z,20.71
2018-07-10T19:59:23.799Z,20.74
2018-07-10T20:01:57.781Z,20.76
2018-07-10T20:04:48.203Z,20.77
2018-07-10T20:07:26.386Z,20.79
2018-07-10T20:10:10.106Z,20.79
2018-07-10T20:13:50.040Z,20.80
2018-07-10T20:16:51.701Z,20.70
2018-07-10T20:20:21.630Z,20.67
2018-07-10T20:25:11.856Z,20.54
2018-07-10T20:27:51.912Z,20.27
2018-07-10T20:30:37.416Z,20.26
2018-07-10T20:33:16.227Z,20.27
2018-07-10T20:35:49.781Z,20.27
2018-07-10T20:38:19.867Z,20.26
2018-07-10T20:40:49.159Z,20.25
2018-07-10T20:43:19.836Z,20.24
2018-07-10T20:45:54.336Z,20.21
2018-07-10T20:49:02.036Z,20.19
2018-07-10T20:51:35.667Z,20.06
2018-07-10T20:55:30.733Z,20.02
2018-07-10T20:58:07.428Z,19.82
2018-07-10T21:01:07.793Z,19.80
2018-07-10T21:03:50.688Z,19.76
2018-07-10T21:06:34.207Z,19.74
2018-07-10T21:09:10.164Z,19.71
2018-07-10T21:12:09.540Z,19.71
2018-07-10T21:15:26.018Z,19.65
2018-07-10T21:18:26.537Z,19.55
2018-07-10T21:21:07.253Z,19.53
2018-07-10T21:24:59.051Z,19.55
2018-07-10T21:28:53.774Z,19.48
2018-07-10T21:31:43.451Z,19.36
2018-07-10T21:34:22.719Z,19.38
2018-07-10T21:37:09.506Z,19.44
2018-07-10T21:42:04.047Z,19.49
2018-07-10T21:47:13.299Z,19.28
2018-07-10T21:49:51.168Z,19.05
2018-07-10T21:52:20.344Z,19.10
2018-07-10T21:54:49.728Z,19.16
2018-07-10T21:57:33.865Z,19.23
2018-07-10T22:00:05.220Z,19.26
2018-07-10T22:02:34.307Z,19.27
2018-07-10T22:05:03.764Z,19.28
2018-07-10T22:07:32.822Z,19.27
2018-07-10T22:10:09.221Z,19.26
2018-07-10T22:12:46.914Z,19.24
2018-07-10T22:15:16.091Z,19.19
2018-07-10T22:17:45.749Z,19.18
2018-07-10T22:20:15.093Z,19.14
2018-07-10T22:22:44.794Z,19.12
2018-07-10T22:25:13.991Z,19.11
2018-07-10T22:27:43.731Z,19.10
2018-07-10T22:30:21.306Z,19.11
2018-07-10T22:32:59.537Z,19.10
2018-07-10T22:35:29.489Z,19.11
2018-07-10T22:37:58.512Z,19.13
2018-07-10T22:40:27.352Z,19.13
2018-07-10T22:42:56.929Z,19.14
2018-07-10T22:45:27.481Z,19.14
2018-07-10T22:47:56.521Z,19.13
2018-07-10T22:50:26.753Z,19.15
2018-07-10T22:52:58.065Z,19.15
2018-07-10T22:55:30.440Z,19.17
2018-07-10T22:58:01.786Z,19.18
2018-07-10T23:00:33.107Z,19.17
2018-07-10T23:03:21.957Z,19.19
2018-07-10T23:05:51.976Z,19.16
2018-07-10T23:08:34.003Z,19.16
2018-07-10T23:11:04.516Z,19.17
2018-07-10T23:13:37.202Z,19.20
2018-07-10T23:16:06.600Z,19.19
2018-07-10T23:18:35.694Z,19.20
2018-07-10T23:21:05.424Z,19.19
2018-07-10T23:23:35.735Z,19.20
2018-07-10T23:26:04.895Z,19.21
2018-07-10T23:28:34.000Z,19.22
2018-07-10T23:31:04.744Z,19.24
2018-07-10T23:33:34.282Z,19.26
2018-07-10T23:36:05.269Z,19.28
2018-07-10T23:38:58.084Z,19.28
2018-07-10T23:41:38.471Z,19.23
2018-07-10T23:44:09.125Z,19.20
2018-07-10T23:46:51.724Z,19.16
2018-07-10T23:49:21.252Z,19.11
2018-07-10T23:52:07.426Z,19.05
2018-07-10T23:54:36.495Z,18.96
2018-07-10T23:57:05.680Z,18.90
2018-07-10T23:59:34.817Z,18.85
